sensor_id;sensor_type;location;lat;lon;timestamp;P1;durP1;ratioP1;P2;durP2;ratioP2
6111;SDS011;3086;48.802;9.394;2022-09-09T00:02:29;2.37;;;1.80;;
6111;SDS011;3086;48.802;9.394;2022-09-09T00:05:54;3.80;;;2.10;;
6111;SDS011;3086;48.802;9.394;2022-09-09T00:09:19;4.90;;;2.03;;
6111;SDS011;3086;48.802;9.394;2022-09-09T00:12:43;4.63;;;2.00;;
6111;SDS011;3086;48.802;9.394;2022-09-09T00:16:14;5.10;;;1.97;;
6111;SDS011;3086;48.802;9.394;2022-09-09T00:19:40;4.67;;;2.47;;
6111;SDS011;3086;48.802;9.394;2022-09-09T00:23:08;5.37;;;2.07;;
6111;SDS011;3086;48.802;9.394;2022-09-09T00:26:34;1.83;;;1.73;;
6111;SDS011;3086;48.802;9.394;2022-09-09T00:30:01;4.03;;;2.90;;
6111;SDS011;3086;48.802;9.394;2022-09-09T00:33:33;4.80;;;1.90;;
6111;SDS011;3086;48.802;9.394;2022-09-09T00:36:55;4.03;;;1.90;;
6111;SDS011;3086;48.802;9.394;2022-09-09T00:40:22;5.23;;;2.00;;
6111;SDS011;3086;48.802;9.394;2022-09-09T00:43:46;3.97;;;2.00;;
6111;SDS011;3086;48.802;9.394;2022-09-09T00:47:18;3.30;;;1.90;;
6111;SDS011;3086;48.802;9.394;2022-09-09T00:50:48;3.80;;;2.00;;
6111;SDS011;3086;48.802;9.394;2022-09-09T00:58:01;3.80;;;2.00;;
6111;SDS011;3086;48.802;9.394;2022-09-09T01:01:23;5.07;;;2.00;;
6111;SDS011;3086;48.802;9.394;2022-09-09T01:04:44;4.20;;;1.90;;
6111;SDS011;3086;48.802;9.394;2022-09-09T01:08:18;4.30;;;1.93;;
6111;SDS011;3086;48.802;9.394;2022-09-09T01:11:52;3.30;;;2.00;;
6111;SDS011;3086;48.802;9.394;2022-09-09T01:15:19;5.30;;;1.70;;
6111;SDS011;3086;48.802;9.394;2022-09-09T01:18:45;3.27;;;1.90;;
6111;SDS011;3086;48.802;9.394;2022-09-09T01:22:11;7.23;;;2.07;;
6111;SDS011;3086;48.802;9.394;2022-09-09T01:29:29;3.10;;;1.83;;
6111;SDS011;3086;48.802;9.394;2022-09-09T01:32:52;2.37;;;1.90;;
6111;SDS011;3086;48.802;9.394;2022-09-09T01:36:18;3.37;;;1.60;;
6111;SDS011;3086;48.802;9.394;2022-09-09T01:39:44;5.40;;;2.30;;
6111;SDS011;3086;48.802;9.394;2022-09-09T01:43:08;6.87;;;2.10;;
6111;SDS011;3086;48.802;9.394;2022-09-09T01:46:29;6.87;;;2.40;;
6111;SDS011;3086;48.802;9.394;2022-09-09T01:49:51;5.80;;;2.10;;
6111;SDS011;3086;48.802;9.394;2022-09-09T01:53:12;4.20;;;1.83;;
6111;SDS011;3086;48.802;9.394;2022-09-09T01:56:39;3.37;;;2.20;;
6111;SDS011;3086;48.802;9.394;2022-09-09T02:00:07;3.07;;;2.10;;
6111;SDS011;3086;48.802;9.394;2022-09-09T02:03:31;3.60;;;1.70;;
6111;SDS011;3086;48.802;9.394;2022-09-09T02:06:55;1.67;;;1.57;;
6111;SDS011;3086;48.802;9.394;2022-09-09T02:10:20;3.27;;;2.10;;
6111;SDS011;3086;48.802;9.394;2022-09-09T02:13:43;3.57;;;1.87;;
6111;SDS011;3086;48.802;9.394;2022-09-09T02:17:08;5.00;;;2.13;;
6111;SDS011;3086;48.802;9.394;2022-09-09T02:20:31;3.73;;;2.00;;
6111;SDS011;3086;48.802;9.394;2022-09-09T02:23:53;3.23;;;2.10;;
6111;SDS011;3086;48.802;9.394;2022-09-09T02:27:16;2.80;;;2.00;;
6111;SDS011;3086;48.802;9.394;2022-09-09T02:30:38;3.53;;;2.07;;
6111;SDS011;3086;48.802;9.394;2022-09-09T02:34:02;9.50;;;2.17;;
6111;SDS011;3086;48.802;9.394;2022-09-09T02:37:26;3.03;;;1.83;;
6111;SDS011;3086;48.802;9.394;2022-09-09T02:40:50;3.17;;;1.97;;
6111;SDS011;3086;48.802;9.394;2022-09-09T02:44:12;3.07;;;2.00;;
6111;SDS011;3086;48.802;9.394;2022-09-09T02:47:37;5.87;;;3.00;;
6111;SDS011;3086;48.802;9.394;2022-09-09T02:51:02;3.13;;;2.20;;
6111;SDS011;3086;48.802;9.394;2022-09-09T02:54:30;1.97;;;1.87;;
6111;SDS011;3086;48.802;9.394;2022-09-09T02:57:53;4.47;;;2.20;;
6111;SDS011;3086;48.802;9.394;2022-09-09T03:01:16;2.17;;;1.80;;
6111;SDS011;3086;48.802;9.394;2022-09-09T03:04:37;5.30;;;2.17;;
6111;SDS011;3086;48.802;9.394;2022-09-09T03:08:01;5.10;;;2.20;;
6111;SDS011;3086;48.802;9.394;2022-09-09T03:11:23;5.63;;;2.20;;
6111;SDS011;3086;48.802;9.394;2022-09-09T03:14:44;2.67;;;1.97;;
6111;SDS011;3086;48.802;9.394;2022-09-09T03:18:06;5.93;;;2.20;;
6111;SDS011;3086;48.802;9.394;2022-09-09T03:21:28;6.87;;;2.07;;
6111;SDS011;3086;48.802;9.394;2022-09-09T03:24:51;9.33;;;2.00;;
6111;SDS011;3086;48.802;9.394;2022-09-09T03:28:13;3.20;;;1.80;;
6111;SDS011;3086;48.802;9.394;2022-09-09T03:31:34;4.13;;;2.20;;
6111;SDS011;3086;48.802;9.394;2022-09-09T03:34:56;3.00;;;1.77;;
6111;SDS011;3086;48.802;9.394;2022-09-09T03:38:18;4.27;;;2.00;;
6111;SDS011;3086;48.802;9.394;2022-09-09T03:41:41;3.47;;;2.00;;
6111;SDS011;3086;48.802;9.394;2022-09-09T03:45:04;4.23;;;1.70;;
6111;SDS011;3086;48.802;9.394;2022-09-09T03:48:27;2.20;;;1.90;;
6111;SDS011;3086;48.802;9.394;2022-09-09T03:51:49;4.03;;;1.70;;
6111;SDS011;3086;48.802;9.394;2022-09-09T03:55:10;3.83;;;2.10;;
6111;SDS011;3086;48.802;9.394;2022-09-09T03:58:33;3.40;;;1.50;;
6111;SDS011;3086;48.802;9.394;2022-09-09T04:01:55;3.83;;;1.90;;
6111;SDS011;3086;48.802;9.394;2022-09-09T04:05:19;3.73;;;1.63;;
6111;SDS011;3086;48.802;9.394;2022-09-09T04:08:40;3.67;;;1.70;;
6111;SDS011;3086;48.802;9.394;2022-09-09T04:12:02;3.30;;;1.93;;
6111;SDS011;3086;48.802;9.394;2022-09-09T04:15:25;6.63;;;1.70;;
6111;SDS011;3086;48.802;9.394;2022-09-09T04:18:47;3.60;;;1.60;;
6111;SDS011;3086;48.802;9.394;2022-09-09T04:22:09;3.03;;;1.63;;
6111;SDS011;3086;48.802;9.394;2022-09-09T04:25:31;3.10;;;2.37;;
6111;SDS011;3086;48.802;9.394;2022-09-09T04:28:53;3.73;;;1.70;;
6111;SDS011;3086;48.802;9.394;2022-09-09T04:32:17;3.40;;;1.97;;
6111;SDS011;3086;48.802;9.394;2022-09-09T04:35:38;3.00;;;1.87;;
6111;SDS011;3086;48.802;9.394;2022-09-09T04:39:00;2.27;;;1.73;;
6111;SDS011;3086;48.802;9.394;2022-09-09T04:42:22;5.70;;;2.23;;
6111;SDS011;3086;48.802;9.394;2022-09-09T04:45:44;6.83;;;2.00;;
6111;SDS011;3086;48.802;9.394;2022-09-09T04:49:09;4.13;;;1.60;;
6111;SDS011;3086;48.802;9.394;2022-09-09T04:52:31;5.83;;;1.80;;
6111;SDS011;3086;48.802;9.394;2022-09-09T04:56:00;3.73;;;2.03;;
6111;SDS011;3086;48.802;9.394;2022-09-09T04:59:22;5.00;;;2.10;;
6111;SDS011;3086;48.802;9.394;2022-09-09T05:02:44;2.37;;;2.03;;
6111;SDS011;3086;48.802;9.394;2022-09-09T05:06:08;3.40;;;2.20;;
6111;SDS011;3086;48.802;9.394;2022-09-09T05:09:30;4.70;;;2.27;;
6111;SDS011;3086;48.802;9.394;2022-09-09T05:12:52;3.00;;;1.90;;
6111;SDS011;3086;48.802;9.394;2022-09-09T05:16:14;3.63;;;2.00;;
6111;SDS011;3086;48.802;9.394;2022-09-09T05:19:36;4.07;;;2.10;;
6111;SDS011;3086;48.802;9.394;2022-09-09T05:22:59;2.53;;;1.90;;
6111;SDS011;3086;48.802;9.394;2022-09-09T05:26:21;2.73;;;1.60;;
6111;SDS011;3086;48.802;9.394;2022-09-09T05:29:44;4.63;;;2.00;;
6111;SDS011;3086;48.802;9.394;2022-09-09T05:33:05;3.40;;;2.00;;
6111;SDS011;3086;48.802;9.394;2022-09-09T05:36:29;2.77;;;1.80;;
6111;SDS011;3086;48.802;9.394;2022-09-09T05:39:52;3.47;;;2.07;;
6111;SDS011;3086;48.802;9.394;2022-09-09T05:43:13;2.80;;;1.90;;
6111;SDS011;3086;48.802;9.394;2022-09-09T05:46:35;4.20;;;2.00;;
6111;SDS011;3086;48.802;9.394;2022-09-09T05:49:56;4.37;;;1.93;;
6111;SDS011;3086;48.802;9.394;2022-09-09T05:53:18;3.60;;;1.87;;
6111;SDS011;3086;48.802;9.394;2022-09-09T05:56:41;5.17;;;1.93;;
6111;SDS011;3086;48.802;9.394;2022-09-09T06:00:03;4.43;;;2.10;;
6111;SDS011;3086;48.802;9.394;2022-09-09T06:03:25;4.40;;;2.30;;
6111;SDS011;3086;48.802;9.394;2022-09-09T06:06:47;3.43;;;1.90;;
6111;SDS011;3086;48.802;9.394;2022-09-09T06:10:08;4.47;;;2.03;;
6111;SDS011;3086;48.802;9.394;2022-09-09T06:13:31;5.53;;;1.83;;
6111;SDS011;3086;48.802;9.394;2022-09-09T06:16:53;4.53;;;1.97;;
6111;SDS011;3086;48.802;9.394;2022-09-09T06:20:15;4.27;;;1.97;;
6111;SDS011;3086;48.802;9.394;2022-09-09T06:23:36;2.57;;;1.83;;
6111;SDS011;3086;48.802;9.394;2022-09-09T06:27:01;2.33;;;1.50;;
6111;SDS011;3086;48.802;9.394;2022-09-09T06:30:24;3.90;;;1.40;;
6111;SDS011;3086;48.802;9.394;2022-09-09T06:33:45;4.40;;;1.73;;
6111;SDS011;3086;48.802;9.394;2022-09-09T06:37:07;3.00;;;1.67;;
6111;SDS011;3086;48.802;9.394;2022-09-09T06:40:28;1.93;;;1.67;;
6111;SDS011;3086;48.802;9.394;2022-09-09T06:43:50;4.30;;;1.93;;
6111;SDS011;3086;48.802;9.394;2022-09-09T06:47:13;6.70;;;2.03;;
6111;SDS011;3086;48.802;9.394;2022-09-09T06:50:34;1.80;;;1.37;;
6111;SDS011;3086;48.802;9.394;2022-09-09T06:53:56;4.97;;;1.90;;
6111;SDS011;3086;48.802;9.394;2022-09-09T06:57:19;1.93;;;1.57;;
6111;SDS011;3086;48.802;9.394;2022-09-09T07:00:40;4.50;;;2.10;;
6111;SDS011;3086;48.802;9.394;2022-09-09T07:04:03;3.63;;;1.90;;
6111;SDS011;3086;48.802;9.394;2022-09-09T07:07:27;3.90;;;1.80;;
6111;SDS011;3086;48.802;9.394;2022-09-09T07:10:50;3.80;;;1.73;;
6111;SDS011;3086;48.802;9.394;2022-09-09T07:14:14;2.20;;;1.70;;
6111;SDS011;3086;48.802;9.394;2022-09-09T07:17:36;2.80;;;1.77;;
6111;SDS011;3086;48.802;9.394;2022-09-09T07:21:00;5.33;;;1.77;;
6111;SDS011;3086;48.802;9.394;2022-09-09T07:24:22;2.60;;;1.40;;
6111;SDS011;3086;48.802;9.394;2022-09-09T07:27:44;5.53;;;1.80;;
6111;SDS011;3086;48.802;9.394;2022-09-09T07:31:05;2.27;;;1.80;;
6111;SDS011;3086;48.802;9.394;2022-09-09T07:34:27;3.33;;;1.70;;
6111;SDS011;3086;48.802;9.394;2022-09-09T07:37:51;2.37;;;1.50;;
6111;SDS011;3086;48.802;9.394;2022-09-09T07:41:14;2.30;;;1.57;;
6111;SDS011;3086;48.802;9.394;2022-09-09T07:44:37;3.23;;;1.60;;
6111;SDS011;3086;48.802;9.394;2022-09-09T07:47:59;1.63;;;1.40;;
6111;SDS011;3086;48.802;9.394;2022-09-09T07:51:22;2.53;;;1.50;;
6111;SDS011;3086;48.802;9.394;2022-09-09T07:54:45;3.37;;;1.60;;
6111;SDS011;3086;48.802;9.394;2022-09-09T07:58:07;3.27;;;1.57;;
6111;SDS011;3086;48.802;9.394;2022-09-09T08:01:29;1.80;;;1.30;;
6111;SDS011;3086;48.802;9.394;2022-09-09T08:04:52;5.53;;;2.07;;
6111;SDS011;3086;48.802;9.394;2022-09-09T08:08:13;1.87;;;1.43;;
6111;SDS011;3086;48.802;9.394;2022-09-09T08:11:36;2.53;;;1.60;;
6111;SDS011;3086;48.802;9.394;2022-09-09T08:14:58;2.30;;;1.20;;
6111;SDS011;3086;48.802;9.394;2022-09-09T08:18:20;2.27;;;1.43;;
6111;SDS011;3086;48.802;9.394;2022-09-09T08:21:42;1.90;;;1.70;;
6111;SDS011;3086;48.802;9.394;2022-09-09T08:25:04;2.27;;;1.50;;
6111;SDS011;3086;48.802;9.394;2022-09-09T08:28:29;2.13;;;1.73;;
6111;SDS011;3086;48.802;9.394;2022-09-09T08:31:53;4.70;;;1.80;;
6111;SDS011;3086;48.802;9.394;2022-09-09T08:35:17;4.57;;;1.87;;
6111;SDS011;3086;48.802;9.394;2022-09-09T08:38:40;3.23;;;1.33;;
6111;SDS011;3086;48.802;9.394;2022-09-09T08:42:08;3.00;;;1.80;;
6111;SDS011;3086;48.802;9.394;2022-09-09T08:45:53;1.77;;;1.60;;
6111;SDS011;3086;48.802;9.394;2022-09-09T08:49:24;4.00;;;1.80;;
6111;SDS011;3086;48.802;9.394;2022-09-09T08:53:00;2.47;;;1.60;;
6111;SDS011;3086;48.802;9.394;2022-09-09T08:56:24;2.17;;;1.67;;
6111;SDS011;3086;48.802;9.394;2022-09-09T08:59:46;3.80;;;1.60;;
6111;SDS011;3086;48.802;9.394;2022-09-09T09:03:13;5.50;;;1.90;;
6111;SDS011;3086;48.802;9.394;2022-09-09T09:06:41;5.57;;;1.50;;
6111;SDS011;3086;48.802;9.394;2022-09-09T09:10:09;6.07;;;1.77;;
6111;SDS011;3086;48.802;9.394;2022-09-09T09:13:38;3.27;;;1.60;;
6111;SDS011;3086;48.802;9.394;2022-09-09T09:17:05;4.20;;;1.60;;
6111;SDS011;3086;48.802;9.394;2022-09-09T09:20:30;2.20;;;1.57;;
6111;SDS011;3086;48.802;9.394;2022-09-09T09:23:57;3.57;;;1.63;;
6111;SDS011;3086;48.802;9.394;2022-09-09T09:27:21;3.20;;;1.90;;
6111;SDS011;3086;48.802;9.394;2022-09-09T09:30:52;3.97;;;1.57;;
6111;SDS011;3086;48.802;9.394;2022-09-09T09:34:15;5.77;;;1.43;;
6111;SDS011;3086;48.802;9.394;2022-09-09T09:37:39;3.33;;;1.43;;
6111;SDS011;3086;48.802;9.394;2022-09-09T09:41:03;3.50;;;1.40;;
6111;SDS011;3086;48.802;9.394;2022-09-09T09:44:26;5.23;;;1.57;;
6111;SDS011;3086;48.802;9.394;2022-09-09T09:47:57;3.27;;;1.60;;
6111;SDS011;3086;48.802;9.394;2022-09-09T09:51:19;10.57;;;2.37;;
6111;SDS011;3086;48.802;9.394;2022-09-09T09:54:43;6.10;;;1.70;;
6111;SDS011;3086;48.802;9.394;2022-09-09T09:58:05;2.00;;;1.30;;
6111;SDS011;3086;48.802;9.394;2022-09-09T10:01:28;3.20;;;1.77;;
6111;SDS011;3086;48.802;9.394;2022-09-09T10:05:00;1.60;;;0.80;;
6111;SDS011;3086;48.802;9.394;2022-09-09T10:08:23;1.57;;;1.00;;
6111;SDS011;3086;48.802;9.394;2022-09-09T10:11:48;1.40;;;0.90;;
6111;SDS011;3086;48.802;9.394;2022-09-09T10:18:58;1.37;;;0.70;;
6111;SDS011;3086;48.802;9.394;2022-09-09T10:22:24;2.10;;;1.07;;
6111;SDS011;3086;48.802;9.394;2022-09-09T10:25:56;1.97;;;1.17;;
6111;SDS011;3086;48.802;9.394;2022-09-09T10:29:29;1.80;;;0.97;;
6111;SDS011;3086;48.802;9.394;2022-09-09T10:33:01;2.47;;;1.20;;
6111;SDS011;3086;48.802;9.394;2022-09-09T10:36:26;3.10;;;1.10;;
6111;SDS011;3086;48.802;9.394;2022-09-09T10:39:49;4.33;;;1.20;;
6111;SDS011;3086;48.802;9.394;2022-09-09T10:43:21;2.10;;;1.00;;
6111;SDS011;3086;48.802;9.394;2022-09-09T10:46:58;2.27;;;1.07;;
6111;SDS011;3086;48.802;9.394;2022-09-09T10:50:33;2.37;;;1.43;;
6111;SDS011;3086;48.802;9.394;2022-09-09T10:54:06;3.53;;;1.30;;
6111;SDS011;3086;48.802;9.394;2022-09-09T10:57:40;1.33;;;1.23;;
6111;SDS011;3086;48.802;9.394;2022-09-09T11:01:06;6.43;;;1.23;;
6111;SDS011;3086;48.802;9.394;2022-09-09T11:04:35;5.03;;;1.30;;
6111;SDS011;3086;48.802;9.394;2022-09-09T11:08:01;2.70;;;1.73;;
6111;SDS011;3086;48.802;9.394;2022-09-09T11:11:25;3.47;;;1.60;;
6111;SDS011;3086;48.802;9.394;2022-09-09T11:14:51;2.67;;;1.30;;
6111;SDS011;3086;48.802;9.394;2022-09-09T11:18:18;2.57;;;1.27;;
6111;SDS011;3086;48.802;9.394;2022-09-09T11:21:43;3.40;;;1.43;;
6111;SDS011;3086;48.802;9.394;2022-09-09T11:25:07;4.27;;;1.77;;
6111;SDS011;3086;48.802;9.394;2022-09-09T11:28:35;3.43;;;1.53;;
6111;SDS011;3086;48.802;9.394;2022-09-09T11:32:06;3.67;;;1.40;;
6111;SDS011;3086;48.802;9.394;2022-09-09T11:35:38;3.43;;;1.43;;
6111;SDS011;3086;48.802;9.394;2022-09-09T11:39:12;3.07;;;1.70;;
6111;SDS011;3086;48.802;9.394;2022-09-09T11:43:03;3.40;;;1.50;;
6111;SDS011;3086;48.802;9.394;2022-09-09T11:46:31;3.07;;;1.60;;
6111;SDS011;3086;48.802;9.394;2022-09-09T11:49:55;1.73;;;1.30;;
6111;SDS011;3086;48.802;9.394;2022-09-09T11:53:28;5.20;;;1.90;;
6111;SDS011;3086;48.802;9.394;2022-09-09T11:56:51;3.77;;;1.70;;
6111;SDS011;3086;48.802;9.394;2022-09-09T12:00:27;5.23;;;1.60;;
6111;SDS011;3086;48.802;9.394;2022-09-09T12:03:55;4.63;;;1.60;;
6111;SDS011;3086;48.802;9.394;2022-09-09T12:07:28;3.17;;;1.30;;
6111;SDS011;3086;48.802;9.394;2022-09-09T12:10:53;4.10;;;1.30;;
6111;SDS011;3086;48.802;9.394;2022-09-09T12:14:21;2.60;;;1.37;;
6111;SDS011;3086;48.802;9.394;2022-09-09T12:17:44;3.37;;;1.47;;
6111;SDS011;3086;48.802;9.394;2022-09-09T12:21:10;6.03;;;1.43;;
6111;SDS011;3086;48.802;9.394;2022-09-09T12:24:40;2.20;;;1.27;;
6111;SDS011;3086;48.802;9.394;2022-09-09T12:28:05;4.00;;;1.60;;
6111;SDS011;3086;48.802;9.394;2022-09-09T12:31:33;3.07;;;1.67;;
6111;SDS011;3086;48.802;9.394;2022-09-09T12:34:57;2.97;;;1.43;;
6111;SDS011;3086;48.802;9.394;2022-09-09T12:38:22;1.60;;;1.17;;
6111;SDS011;3086;48.802;9.394;2022-09-09T12:41:52;2.60;;;1.60;;
6111;SDS011;3086;48.802;9.394;2022-09-09T12:45:18;1.20;;;1.10;;
6111;SDS011;3086;48.802;9.394;2022-09-09T12:48:41;2.07;;;1.10;;
6111;SDS011;3086;48.802;9.394;2022-09-09T12:52:04;3.40;;;1.30;;
6111;SDS011;3086;48.802;9.394;2022-09-09T12:55:28;2.20;;;0.80;;
6111;SDS011;3086;48.802;9.394;2022-09-09T12:58:54;2.53;;;0.97;;
6111;SDS011;3086;48.802;9.394;2022-09-09T13:02:20;1.43;;;0.80;;
6111;SDS011;3086;48.802;9.394;2022-09-09T13:05:44;1.33;;;0.80;;
6111;SDS011;3086;48.802;9.394;2022-09-09T13:09:08;2.87;;;1.00;;
6111;SDS011;3086;48.802;9.394;2022-09-09T13:12:30;1.70;;;0.80;;
6111;SDS011;3086;48.802;9.394;2022-09-09T13:15:52;1.13;;;1.00;;
6111;SDS011;3086;48.802;9.394;2022-09-09T13:19:15;4.90;;;1.73;;
6111;SDS011;3086;48.802;9.394;2022-09-09T13:22:39;2.93;;;0.90;;
6111;SDS011;3086;48.802;9.394;2022-09-09T13:26:01;1.60;;;0.73;;
6111;SDS011;3086;48.802;9.394;2022-09-09T13:29:24;2.90;;;1.00;;
6111;SDS011;3086;48.802;9.394;2022-09-09T13:32:46;1.40;;;1.10;;
6111;SDS011;3086;48.802;9.394;2022-09-09T13:36:08;1.27;;;1.17;;
6111;SDS011;3086;48.802;9.394;2022-09-09T13:39:31;1.70;;;1.10;;
6111;SDS011;3086;48.802;9.394;2022-09-09T13:42:54;4.93;;;1.20;;
6111;SDS011;3086;48.802;9.394;2022-09-09T13:46:29;3.30;;;1.20;;
6111;SDS011;3086;48.802;9.394;2022-09-09T13:49:53;3.67;;;1.40;;
6111;SDS011;3086;48.802;9.394;2022-09-09T13:53:14;2.17;;;1.10;;
6111;SDS011;3086;48.802;9.394;2022-09-09T13:56:38;3.00;;;1.50;;
6111;SDS011;3086;48.802;9.394;2022-09-09T14:00:00;3.57;;;1.27;;
6111;SDS011;3086;48.802;9.394;2022-09-09T14:03:22;1.70;;;0.97;;
6111;SDS011;3086;48.802;9.394;2022-09-09T14:06:44;2.57;;;0.87;;
6111;SDS011;3086;48.802;9.394;2022-09-09T14:10:06;3.20;;;1.30;;
6111;SDS011;3086;48.802;9.394;2022-09-09T14:13:29;1.10;;;0.93;;
6111;SDS011;3086;48.802;9.394;2022-09-09T14:16:51;2.57;;;0.90;;
6111;SDS011;3086;48.802;9.394;2022-09-09T14:20:12;2.40;;;1.17;;
6111;SDS011;3086;48.802;9.394;2022-09-09T14:23:35;1.80;;;1.07;;
6111;SDS011;3086;48.802;9.394;2022-09-09T14:26:58;3.00;;;1.03;;
6111;SDS011;3086;48.802;9.394;2022-09-09T14:30:21;2.33;;;1.37;;
6111;SDS011;3086;48.802;9.394;2022-09-09T14:33:42;1.93;;;1.37;;
6111;SDS011;3086;48.802;9.394;2022-09-09T14:37:04;1.83;;;1.20;;
6111;SDS011;3086;48.802;9.394;2022-09-09T14:40:26;1.20;;;1.10;;
6111;SDS011;3086;48.802;9.394;2022-09-09T14:43:47;2.93;;;0.97;;
6111;SDS011;3086;48.802;9.394;2022-09-09T14:47:10;2.80;;;1.00;;
6111;SDS011;3086;48.802;9.394;2022-09-09T14:50:32;1.40;;;0.90;;
6111;SDS011;3086;48.802;9.394;2022-09-09T14:53:55;1.03;;;0.90;;
6111;SDS011;3086;48.802;9.394;2022-09-09T14:57:17;1.57;;;1.10;;
6111;SDS011;3086;48.802;9.394;2022-09-09T15:00:39;1.27;;;0.73;;
6111;SDS011;3086;48.802;9.394;2022-09-09T15:04:03;1.43;;;0.80;;
6111;SDS011;3086;48.802;9.394;2022-09-09T15:07:25;1.60;;;1.03;;
6111;SDS011;3086;48.802;9.394;2022-09-09T15:10:48;0.97;;;0.83;;
6111;SDS011;3086;48.802;9.394;2022-09-09T15:14:10;1.00;;;0.90;;
6111;SDS011;3086;48.802;9.394;2022-09-09T15:17:32;2.30;;;1.00;;
6111;SDS011;3086;48.802;9.394;2022-09-09T15:20:55;1.03;;;1.00;;
6111;SDS011;3086;48.802;9.394;2022-09-09T15:24:16;2.33;;;1.10;;
6111;SDS011;3086;48.802;9.394;2022-09-09T15:27:38;1.67;;;0.97;;
6111;SDS011;3086;48.802;9.394;2022-09-09T15:31:00;2.03;;;1.07;;
6111;SDS011;3086;48.802;9.394;2022-09-09T15:34:27;2.33;;;1.10;;
6111;SDS011;3086;48.802;9.394;2022-09-09T15:37:50;2.17;;;1.13;;
6111;SDS011;3086;48.802;9.394;2022-09-09T15:41:11;2.17;;;0.90;;
6111;SDS011;3086;48.802;9.394;2022-09-09T15:44:37;0.83;;;0.83;;
6111;SDS011;3086;48.802;9.394;2022-09-09T15:48:00;1.20;;;0.87;;
6111;SDS011;3086;48.802;9.394;2022-09-09T15:51:21;1.90;;;1.30;;
6111;SDS011;3086;48.802;9.394;2022-09-09T15:54:46;1.40;;;0.90;;
6111;SDS011;3086;48.802;9.394;2022-09-09T15:58:07;1.67;;;0.90;;
6111;SDS011;3086;48.802;9.394;2022-09-09T16:01:29;3.00;;;1.40;;
6111;SDS011;3086;48.802;9.394;2022-09-09T16:04:51;5.53;;;1.30;;
6111;SDS011;3086;48.802;9.394;2022-09-09T16:08:13;2.73;;;1.23;;
6111;SDS011;3086;48.802;9.394;2022-09-09T16:11:36;4.53;;;1.13;;
6111;SDS011;3086;48.802;9.394;2022-09-09T16:14:59;4.87;;;1.43;;
6111;SDS011;3086;48.802;9.394;2022-09-09T16:18:21;4.30;;;1.30;;
6111;SDS011;3086;48.802;9.394;2022-09-09T16:21:44;2.37;;;1.23;;
6111;SDS011;3086;48.802;9.394;2022-09-09T16:25:07;3.10;;;1.30;;
6111;SDS011;3086;48.802;9.394;2022-09-09T16:28:31;3.77;;;1.27;;
6111;SDS011;3086;48.802;9.394;2022-09-09T16:31:53;4.83;;;1.33;;
6111;SDS011;3086;48.802;9.394;2022-09-09T16:35:14;1.87;;;1.23;;
6111;SDS011;3086;48.802;9.394;2022-09-09T16:38:36;3.73;;;1.40;;
6111;SDS011;3086;48.802;9.394;2022-09-09T16:41:58;3.57;;;1.20;;
6111;SDS011;3086;48.802;9.394;2022-09-09T16:45:21;1.30;;;1.20;;
6111;SDS011;3086;48.802;9.394;2022-09-09T16:48:43;2.40;;;1.53;;
6111;SDS011;3086;48.802;9.394;2022-09-09T16:52:05;1.90;;;0.87;;
6111;SDS011;3086;48.802;9.394;2022-09-09T16:55:26;2.67;;;0.83;;
6111;SDS011;3086;48.802;9.394;2022-09-09T16:58:49;1.50;;;1.13;;
6111;SDS011;3086;48.802;9.394;2022-09-09T17:02:12;2.23;;;1.03;;
6111;SDS011;3086;48.802;9.394;2022-09-09T17:05:38;3.03;;;0.70;;
6111;SDS011;3086;48.802;9.394;2022-09-09T17:09:02;1.70;;;0.87;;
6111;SDS011;3086;48.802;9.394;2022-09-09T17:12:25;0.93;;;0.93;;
6111;SDS011;3086;48.802;9.394;2022-09-09T17:15:46;2.33;;;0.90;;
6111;SDS011;3086;48.802;9.394;2022-09-09T17:19:10;2.67;;;1.00;;
6111;SDS011;3086;48.802;9.394;2022-09-09T17:22:31;1.87;;;1.17;;
6111;SDS011;3086;48.802;9.394;2022-09-09T17:25:55;1.27;;;1.17;;
6111;SDS011;3086;48.802;9.394;2022-09-09T17:29:18;2.20;;;0.80;;
6111;SDS011;3086;48.802;9.394;2022-09-09T17:32:39;1.00;;;1.00;;
6111;SDS011;3086;48.802;9.394;2022-09-09T17:36:05;3.70;;;1.00;;
6111;SDS011;3086;48.802;9.394;2022-09-09T17:39:28;0.80;;;0.80;;
6111;SDS011;3086;48.802;9.394;2022-09-09T17:42:49;2.13;;;0.90;;
6111;SDS011;3086;48.802;9.394;2022-09-09T17:46:12;2.47;;;0.97;;
6111;SDS011;3086;48.802;9.394;2022-09-09T17:49:35;0.93;;;0.80;;
6111;SDS011;3086;48.802;9.394;2022-09-09T17:52:58;2.47;;;0.70;;
6111;SDS011;3086;48.802;9.394;2022-09-09T17:56:20;1.67;;;0.70;;
6111;SDS011;3086;48.802;9.394;2022-09-09T17:59:43;1.00;;;0.70;;
6111;SDS011;3086;48.802;9.394;2022-09-09T18:03:05;1.13;;;0.90;;
6111;SDS011;3086;48.802;9.394;2022-09-09T18:06:27;1.00;;;0.90;;
6111;SDS011;3086;48.802;9.394;2022-09-09T18:09:51;1.80;;;1.00;;
6111;SDS011;3086;48.802;9.394;2022-09-09T18:13:13;1.03;;;0.90;;
6111;SDS011;3086;48.802;9.394;2022-09-09T18:16:36;1.23;;;1.10;;
6111;SDS011;3086;48.802;9.394;2022-09-09T18:19:58;2.20;;;0.93;;
6111;SDS011;3086;48.802;9.394;2022-09-09T18:23:20;2.17;;;1.00;;
6111;SDS011;3086;48.802;9.394;2022-09-09T18:26:43;1.27;;;1.17;;
6111;SDS011;3086;48.802;9.394;2022-09-09T18:30:07;1.20;;;1.00;;
6111;SDS011;3086;48.802;9.394;2022-09-09T18:33:30;2.70;;;1.07;;
6111;SDS011;3086;48.802;9.394;2022-09-09T18:36:52;2.30;;;1.60;;
6111;SDS011;3086;48.802;9.394;2022-09-09T18:40:14;1.40;;;1.20;;
6111;SDS011;3086;48.802;9.394;2022-09-09T18:43:38;1.37;;;0.80;;
6111;SDS011;3086;48.802;9.394;2022-09-09T18:47:00;2.30;;;1.57;;
6111;SDS011;3086;48.802;9.394;2022-09-09T18:50:22;2.53;;;1.43;;
6111;SDS011;3086;48.802;9.394;2022-09-09T18:53:48;1.30;;;1.13;;
6111;SDS011;3086;48.802;9.394;2022-09-09T18:57:09;1.80;;;1.20;;
6111;SDS011;3086;48.802;9.394;2022-09-09T19:00:32;1.97;;;1.17;;
6111;SDS011;3086;48.802;9.394;2022-09-09T19:03:54;2.67;;;1.13;;
6111;SDS011;3086;48.802;9.394;2022-09-09T19:07:16;2.00;;;1.60;;
6111;SDS011;3086;48.802;9.394;2022-09-09T19:10:38;2.23;;;1.60;;
6111;SDS011;3086;48.802;9.394;2022-09-09T19:14:01;2.23;;;1.60;;
6111;SDS011;3086;48.802;9.394;2022-09-09T19:17:25;1.93;;;1.40;;
6111;SDS011;3086;48.802;9.394;2022-09-09T19:20:47;1.30;;;1.20;;
6111;SDS011;3086;48.802;9.394;2022-09-09T19:24:10;2.00;;;1.50;;
6111;SDS011;3086;48.802;9.394;2022-09-09T19:27:32;2.87;;;1.33;;
6111;SDS011;3086;48.802;9.394;2022-09-09T19:30:53;2.97;;;1.60;;
6111;SDS011;3086;48.802;9.394;2022-09-09T19:34:16;1.53;;;1.30;;
6111;SDS011;3086;48.802;9.394;2022-09-09T19:37:39;2.03;;;1.30;;
6111;SDS011;3086;48.802;9.394;2022-09-09T19:41:01;2.20;;;1.40;;
6111;SDS011;3086;48.802;9.394;2022-09-09T19:44:24;2.03;;;1.70;;
6111;SDS011;3086;48.802;9.394;2022-09-09T19:47:46;1.80;;;1.30;;
6111;SDS011;3086;48.802;9.394;2022-09-09T19:51:09;1.30;;;1.20;;
6111;SDS011;3086;48.802;9.394;2022-09-09T19:54:32;2.23;;;1.20;;
6111;SDS011;3086;48.802;9.394;2022-09-09T19:57:53;2.37;;;1.20;;
6111;SDS011;3086;48.802;9.394;2022-09-09T20:01:16;1.90;;;1.30;;
6111;SDS011;3086;48.802;9.394;2022-09-09T20:04:38;1.30;;;1.20;;
6111;SDS011;3086;48.802;9.394;2022-09-09T20:08:01;3.10;;;1.33;;
6111;SDS011;3086;48.802;9.394;2022-09-09T20:11:23;2.43;;;1.43;;
6111;SDS011;3086;48.802;9.394;2022-09-09T20:14:45;1.10;;;1.00;;
6111;SDS011;3086;48.802;9.394;2022-09-09T20:18:07;3.43;;;1.37;;
6111;SDS011;3086;48.802;9.394;2022-09-09T20:21:29;3.23;;;1.40;;
6111;SDS011;3086;48.802;9.394;2022-09-09T20:24:53;1.70;;;1.20;;
6111;SDS011;3086;48.802;9.394;2022-09-09T20:28:14;3.87;;;1.30;;
6111;SDS011;3086;48.802;9.394;2022-09-09T20:31:38;1.80;;;1.63;;
6111;SDS011;3086;48.802;9.394;2022-09-09T20:35:00;3.03;;;1.50;;
6111;SDS011;3086;48.802;9.394;2022-09-09T20:38:21;1.93;;;1.57;;
6111;SDS011;3086;48.802;9.394;2022-09-09T20:41:44;1.97;;;1.77;;
6111;SDS011;3086;48.802;9.394;2022-09-09T20:45:06;4.30;;;1.60;;
6111;SDS011;3086;48.802;9.394;2022-09-09T20:48:35;3.67;;;1.60;;
6111;SDS011;3086;48.802;9.394;2022-09-09T20:51:56;4.60;;;1.50;;
6111;SDS011;3086;48.802;9.394;2022-09-09T20:55:18;2.70;;;1.67;;
6111;SDS011;3086;48.802;9.394;2022-09-09T20:58:41;2.53;;;1.47;;
6111;SDS011;3086;48.802;9.394;2022-09-09T21:02:02;2.17;;;1.60;;
6111;SDS011;3086;48.802;9.394;2022-09-09T21:05:24;3.83;;;1.70;;
6111;SDS011;3086;48.802;9.394;2022-09-09T21:08:47;4.63;;;1.63;;
6111;SDS011;3086;48.802;9.394;2022-09-09T21:12:09;6.87;;;1.67;;
6111;SDS011;3086;48.802;9.394;2022-09-09T21:15:32;3.60;;;1.63;;
6111;SDS011;3086;48.802;9.394;2022-09-09T21:18:53;1.73;;;1.60;;